createdAt,value
2023-02-03T00:01:32.307Z,3.58
2023-02-03T00:04:19.015Z,3.38
2023-02-03T00:07:05.654Z,3.67
2023-02-03T00:09:52.266Z,3.08
2023-02-03T00:12:40.210Z,2.47
2023-02-03T00:15:26.835Z,2.95
2023-02-03T00:18:13.126Z,3.17
2023-02-03T00:20:59.762Z,3.05
2023-02-03T00:23:46.622Z,3.17
2023-02-03T00:26:32.975Z,3.15
2023-02-03T00:29:25.687Z,3.70
2023-02-03T00:32:12.631Z,3.10
2023-02-03T00:34:59.417Z,4.15
2023-02-03T00:37:51.902Z,3.17
2023-02-03T00:40:38.148Z,3.35
2023-02-03T00:43:24.786Z,3.13
2023-02-03T00:46:14.768Z,3.72
2023-02-03T00:49:01.391Z,3.00
2023-02-03T00:51:48.478Z,2.95
2023-02-03T00:54:35.097Z,3.55
2023-02-03T00:57:22.726Z,2.63
2023-02-03T01:00:10.720Z,3.80
2023-02-03T01:02:59.117Z,3.00
2023-02-03T01:05:45.894Z,2.97
2023-02-03T01:08:32.463Z,3.08
2023-02-03T01:11:20.844Z,4.15
2023-02-03T01:14:08.564Z,3.63
2023-02-03T01:16:56.409Z,3.50
2023-02-03T01:19:45.099Z,2.55
2023-02-03T01:22:31.990Z,3.20
2023-02-03T01:25:18.214Z,3.28
2023-02-03T01:28:05.991Z,2.90
2023-02-03T01:30:52.642Z,3.47
2023-02-03T01:33:40.892Z,3.00
2023-02-03T01:36:32.065Z,2.95
2023-02-03T01:39:18.716Z,2.50
2023-02-03T01:42:05.907Z,4.07
2023-02-03T01:44:52.896Z,2.80
2023-02-03T01:47:45.945Z,3.20
2023-02-03T01:50:35.417Z,2.90
2023-02-03T01:53:23.755Z,2.90
2023-02-03T01:56:10.786Z,2.70
2023-02-03T01:59:00.221Z,2.67
2023-02-03T02:01:47.875Z,2.58
2023-02-03T02:04:44.146Z,2.45
2023-02-03T02:07:33.567Z,2.40
2023-02-03T02:10:22.175Z,2.50
2023-02-03T02:13:08.409Z,2.20
2023-02-03T02:16:01.564Z,2.25
2023-02-03T02:19:01.143Z,2.03
2023-02-03T02:21:59.056Z,2.03
2023-02-03T02:25:15.621Z,2.20
2023-02-03T02:28:50.751Z,2.05
2023-02-03T02:31:51.686Z,2.17
2023-02-03T02:34:50.409Z,2.10
2023-02-03T02:37:45.902Z,1.77
2023-02-03T02:40:38.891Z,1.95
2023-02-03T02:43:37.406Z,1.92
2023-02-03T02:46:30.015Z,1.95
2023-02-03T02:49:24.494Z,1.55
2023-02-03T02:52:14.218Z,2.00
2023-02-03T02:55:06.527Z,2.05
2023-02-03T02:57:56.786Z,1.90
2023-02-03T03:00:45.816Z,1.95
2023-02-03T03:03:33.143Z,1.50
2023-02-03T03:06:27.198Z,1.70
2023-02-03T03:09:17.972Z,2.28
2023-02-03T03:14:58.979Z,2.58
2023-02-03T03:17:51.004Z,1.83
2023-02-03T03:20:42.868Z,1.95
2023-02-03T03:23:34.391Z,2.28
2023-02-03T03:26:28.737Z,2.50
2023-02-03T03:29:19.838Z,2.42
2023-02-03T03:32:07.024Z,2.17
2023-02-03T03:34:53.751Z,1.80
2023-02-03T03:37:45.053Z,2.08
2023-02-03T03:40:37.354Z,1.95
2023-02-03T03:43:29.341Z,1.40
2023-02-03T03:46:22.660Z,1.85
2023-02-03T03:49:11.710Z,1.80
2023-02-03T03:52:03.523Z,1.50
2023-02-03T03:54:52.241Z,1.67
2023-02-03T03:57:45.160Z,1.65
2023-02-03T04:00:34.699Z,1.58
2023-02-03T04:03:25.960Z,1.58
2023-02-03T04:06:14.781Z,1.63
2023-02-03T04:09:02.176Z,1.40
2023-02-03T04:12:05.950Z,1.80
2023-02-03T04:14:53.941Z,1.55
2023-02-03T04:17:40.425Z,1.30
2023-02-03T04:20:27.208Z,1.75
2023-02-03T04:23:14.208Z,1.50
2023-02-03T04:26:02.152Z,1.65
2023-02-03T04:28:48.959Z,1.90
2023-02-03T04:31:38.568Z,1.83
2023-02-03T04:34:25.244Z,1.40
2023-02-03T04:37:11.818Z,1.33
2023-02-03T04:39:58.252Z,1.95
2023-02-03T04:42:44.964Z,1.73
2023-02-03T04:45:31.547Z,2.05
2023-02-03T04:48:19.253Z,1.52
2023-02-03T04:51:07.732Z,2.58
2023-02-03T04:53:54.527Z,1.42
2023-02-03T04:56:41.033Z,1.48
2023-02-03T04:59:28.027Z,1.92
2023-02-03T05:02:14.700Z,2.30
2023-02-03T05:05:02.439Z,1.98
2023-02-03T05:07:49.085Z,1.55
2023-02-03T05:10:35.759Z,2.50
2023-02-03T05:13:22.323Z,1.73
2023-02-03T05:16:08.747Z,1.88
2023-02-03T05:18:55.575Z,1.90
2023-02-03T05:21:43.044Z,2.35
2023-02-03T05:24:29.424Z,2.05
2023-02-03T05:27:16.099Z,1.80
2023-02-03T05:30:02.813Z,1.50
2023-02-03T05:32:50.174Z,2.00
2023-02-03T05:35:36.729Z,2.90
2023-02-03T05:38:25.452Z,2.17
2023-02-03T05:41:31.451Z,2.05
2023-02-03T05:44:18.128Z,2.08
2023-02-03T05:47:05.429Z,2.97
2023-02-03T05:49:52.186Z,2.03
2023-02-03T05:52:38.450Z,2.22
2023-02-03T05:55:26.357Z,2.17
2023-02-03T05:58:13.282Z,2.10
2023-02-03T06:00:59.892Z,2.40
2023-02-03T06:03:46.928Z,2.13
2023-02-03T06:06:34.340Z,1.70
2023-02-03T06:09:21.028Z,2.00
2023-02-03T06:12:09.216Z,1.85
2023-02-03T06:14:55.684Z,1.50
2023-02-03T06:17:45.312Z,1.92
2023-02-03T06:20:31.905Z,1.83
2023-02-03T06:23:19.425Z,2.42
2023-02-03T06:26:06.501Z,1.98
2023-02-03T06:28:56.437Z,2.13
2023-02-03T06:31:43.074Z,1.83
2023-02-03T06:34:29.556Z,2.00
2023-02-03T06:37:16.465Z,1.65
2023-02-03T06:40:04.374Z,2.30
2023-02-03T06:42:51.192Z,1.88
2023-02-03T06:45:39.324Z,4.43
2023-02-03T06:48:25.875Z,2.20
2023-02-03T06:51:12.444Z,2.15
2023-02-03T06:53:59.791Z,1.92
2023-02-03T06:56:46.051Z,2.25
2023-02-03T06:59:32.672Z,2.35
2023-02-03T07:02:20.876Z,1.48
2023-02-03T07:05:08.406Z,2.35
2023-02-03T07:07:55.358Z,1.70
2023-02-03T07:10:41.919Z,2.15
2023-02-03T07:13:28.752Z,2.30
2023-02-03T07:16:15.764Z,1.95
2023-02-03T07:19:04.180Z,2.90
2023-02-03T07:21:50.862Z,2.75
2023-02-03T07:24:38.002Z,2.05
2023-02-03T07:27:24.440Z,2.28
2023-02-03T07:30:12.639Z,1.98
2023-02-03T07:32:59.884Z,1.52
2023-02-03T07:35:53.045Z,2.53
2023-02-03T07:38:39.609Z,2.70
2023-02-03T07:41:26.310Z,2.15
2023-02-03T07:44:13.080Z,2.40
2023-02-03T07:46:59.626Z,1.98
2023-02-03T07:49:46.201Z,2.40
2023-02-03T07:52:34.102Z,3.05
2023-02-03T07:55:20.701Z,2.70
2023-02-03T07:58:07.781Z,2.67
2023-02-03T08:00:54.413Z,3.00
2023-02-03T08:03:41.140Z,2.38
2023-02-03T08:06:27.641Z,1.95
2023-02-03T08:09:15.559Z,2.17
2023-02-03T08:12:02.460Z,2.42
2023-02-03T08:14:48.866Z,2.63
2023-02-03T08:17:35.308Z,2.15
2023-02-03T08:20:22.547Z,2.30
2023-02-03T08:23:08.906Z,2.20
2023-02-03T08:25:56.947Z,2.30
2023-02-03T08:28:43.509Z,2.03
2023-02-03T08:31:30.261Z,2.40
2023-02-03T08:34:16.799Z,2.40
2023-02-03T08:37:03.483Z,1.73
2023-02-03T08:39:49.954Z,2.00
2023-02-03T08:42:38.105Z,2.40
2023-02-03T08:45:24.744Z,2.15
2023-02-03T08:48:11.279Z,2.05
2023-02-03T08:50:57.800Z,1.80
2023-02-03T08:53:44.631Z,2.65
2023-02-03T08:56:31.186Z,2.42
2023-02-03T08:59:20.006Z,2.25
2023-02-03T09:02:07.665Z,2.40
2023-02-03T09:04:54.380Z,2.00
2023-02-03T09:07:41.032Z,2.63
2023-02-03T09:10:28.050Z,2.00
2023-02-03T09:13:14.912Z,2.33
2023-02-03T09:16:02.898Z,1.88
2023-02-03T09:18:49.975Z,2.10
2023-02-03T09:21:44.711Z,2.03
2023-02-03T09:24:34.617Z,2.28
2023-02-03T09:27:21.310Z,2.22
2023-02-03T09:30:08.780Z,2.20
2023-02-03T09:32:56.623Z,2.53
2023-02-03T09:35:43.254Z,1.98
2023-02-03T09:38:30.208Z,1.95
2023-02-03T09:41:30.997Z,2.28
2023-02-03T09:44:22.789Z,2.22
2023-02-03T09:47:16.507Z,5.15
2023-02-03T09:50:08.469Z,2.20
2023-02-03T09:52:56.661Z,1.67
2023-02-03T09:55:45.932Z,2.42
2023-02-03T09:58:35.388Z,2.47
2023-02-03T10:01:25.387Z,1.80
2023-02-03T10:04:24.541Z,2.47
2023-02-03T10:07:20.301Z,2.35
2023-02-03T10:10:16.971Z,1.98
2023-02-03T10:13:24.219Z,2.00
2023-02-03T10:16:26.534Z,2.58
2023-02-03T10:19:17.822Z,1.95
2023-02-03T10:22:07.151Z,1.95
2023-02-03T10:25:00.165Z,2.58
2023-02-03T10:27:47.042Z,2.25
2023-02-03T10:30:45.338Z,2.25
2023-02-03T10:33:34.472Z,2.03
2023-02-03T10:36:22.480Z,2.00
2023-02-03T10:39:21.040Z,1.60
2023-02-03T10:42:11.874Z,2.10
2023-02-03T10:45:00.054Z,2.55
2023-02-03T10:47:51.481Z,2.25
2023-02-03T10:50:45.266Z,3.35
2023-02-03T10:53:35.298Z,2.05
2023-02-03T10:56:26.365Z,1.80
2023-02-03T10:59:29.614Z,1.67
2023-02-03T11:02:25.654Z,5.53
2023-02-03T11:05:21.709Z,2.95
2023-02-03T11:08:15.865Z,2.38
2023-02-03T11:11:06.864Z,1.95
2023-02-03T11:13:55.733Z,2.20
2023-02-03T11:16:47.269Z,2.72
2023-02-03T11:19:33.990Z,1.55
2023-02-03T11:22:32.561Z,2.25
2023-02-03T11:25:25.901Z,1.80
2023-02-03T11:28:14.372Z,2.42
2023-02-03T11:31:01.099Z,1.70
2023-02-03T11:33:56.134Z,1.58
2023-02-03T11:36:43.179Z,1.88
2023-02-03T11:39:35.582Z,1.80
2023-02-03T11:42:23.598Z,1.60
2023-02-03T11:45:15.404Z,2.17
2023-02-03T11:48:07.551Z,2.38
2023-02-03T11:51:02.019Z,1.73
2023-02-03T11:54:03.526Z,2.30
2023-02-03T11:57:09.602Z,1.83
2023-02-03T12:00:05.664Z,2.00
2023-02-03T12:03:32.873Z,1.73
2023-02-03T12:06:50.802Z,1.55
2023-02-03T12:09:51.903Z,2.47
2023-02-03T12:12:49.698Z,1.77
2023-02-03T12:15:52.585Z,3.08
2023-02-03T12:18:51.265Z,1.67
2023-02-03T12:21:47.486Z,1.70
2023-02-03T12:24:44.184Z,1.60
2023-02-03T12:27:42.700Z,3.45
2023-02-03T12:30:36.216Z,2.92
2023-02-03T12:33:27.687Z,1.73
2023-02-03T12:36:19.690Z,2.60
2023-02-03T12:39:18.981Z,2.28
2023-02-03T12:42:13.994Z,2.17
2023-02-03T12:45:06.790Z,2.38
2023-02-03T12:47:57.832Z,2.33
2023-02-03T12:50:50.340Z,1.98
2023-02-03T12:53:42.616Z,1.85
2023-02-03T12:56:36.740Z,1.60
2023-02-03T12:59:26.786Z,1.90
2023-02-03T13:02:20.194Z,1.77
2023-02-03T13:05:17.158Z,1.65
2023-02-03T13:08:13.058Z,1.98
2023-02-03T13:11:12.923Z,2.20
2023-02-03T13:14:06.911Z,2.20
2023-02-03T13:16:58.774Z,2.88
2023-02-03T13:19:48.869Z,1.75
2023-02-03T13:22:35.570Z,2.42
2023-02-03T13:25:26.815Z,2.35
2023-02-03T13:28:24.484Z,2.15
2023-02-03T13:31:25.186Z,2.58
2023-02-03T13:40:22.149Z,3.35
2023-02-03T13:43:22.976Z,2.63
2023-02-03T13:46:26.708Z,2.28
2023-02-03T13:49:24.414Z,3.05
2023-02-03T13:52:26.039Z,2.70
2023-02-03T13:55:29.398Z,2.33
2023-02-03T13:58:27.663Z,2.65
2023-02-03T14:01:33.791Z,2.63
2023-02-03T14:04:51.849Z,2.60
2023-02-03T14:07:40.542Z,2.45
2023-02-03T14:10:27.258Z,2.58
2023-02-03T14:13:21.434Z,2.80
2023-02-03T14:16:16.433Z,2.88
2023-02-03T14:19:05.033Z,2.92
2023-02-03T14:21:55.581Z,2.47
2023-02-03T14:24:46.541Z,2.40
2023-02-03T14:27:33.683Z,2.45
2023-02-03T14:30:20.479Z,3.50
2023-02-03T14:33:07.042Z,2.60
2023-02-03T14:35:55.091Z,2.97
2023-02-03T14:38:42.556Z,3.92
2023-02-03T14:41:41.512Z,4.10
2023-02-03T14:44:36.943Z,3.17
2023-02-03T14:47:36.246Z,2.92
2023-02-03T14:50:35.976Z,3.30
2023-02-03T14:53:38.391Z,3.05
2023-02-03T14:56:55.737Z,2.95
2023-02-03T14:59:45.879Z,3.15
2023-02-03T15:02:34.944Z,3.10
2023-02-03T15:05:39.942Z,3.40
2023-02-03T15:08:49.136Z,3.05
2023-02-03T15:11:35.759Z,2.80
2023-02-03T15:14:25.308Z,2.92
2023-02-03T15:17:24.519Z,3.00
2023-02-03T15:20:32.071Z,3.05
2023-02-03T15:23:21.496Z,3.10
2023-02-03T15:26:14.998Z,3.53
2023-02-03T15:29:03.444Z,3.08
2023-02-03T15:31:55.182Z,2.88
2023-02-03T15:34:45.917Z,3.35
2023-02-03T15:37:38.686Z,2.78
2023-02-03T15:40:39.299Z,3.42
2023-02-03T15:43:32.773Z,3.53
2023-02-03T15:46:25.594Z,3.17
2023-02-03T15:49:18.918Z,4.30
2023-02-03T15:52:11.946Z,4.07
2023-02-03T15:55:07.589Z,7.07
2023-02-03T15:57:54.325Z,3.55
2023-02-03T16:00:42.279Z,3.17
2023-02-03T16:03:35.079Z,4.13
2023-02-03T16:06:27.743Z,3.00
2023-02-03T16:09:34.499Z,3.80
2023-02-03T16:12:24.944Z,3.08
2023-02-03T16:15:23.621Z,3.83
2023-02-03T16:18:18.450Z,3.88
2023-02-03T16:21:06.620Z,3.58
2023-02-03T16:23:53.450Z,3.65
2023-02-03T16:26:40.055Z,3.60
2023-02-03T16:29:47.679Z,3.75
2023-02-03T16:32:52.018Z,3.83
2023-02-03T16:35:57.818Z,4.35
2023-02-03T16:39:03.847Z,3.22
2023-02-03T16:42:08.195Z,3.53
2023-02-03T16:45:12.721Z,3.65
2023-02-03T16:48:16.919Z,4.57
2023-02-03T16:51:08.232Z,4.50
2023-02-03T16:53:54.727Z,4.10
2023-02-03T16:56:41.628Z,3.72
2023-02-03T16:59:28.506Z,4.03
2023-02-03T17:02:16.156Z,3.08
2023-02-03T17:05:03.211Z,4.05
2023-02-03T17:07:51.323Z,3.90
2023-02-03T17:10:40.782Z,4.32
2023-02-03T17:13:27.385Z,3.13
2023-02-03T17:16:17.535Z,4.60
2023-02-03T17:19:04.363Z,5.43
2023-02-03T17:21:51.570Z,4.65
2023-02-03T17:24:40.174Z,6.90
2023-02-03T17:27:26.925Z,4.50
2023-02-03T17:30:14.847Z,4.50
2023-02-03T17:33:01.984Z,5.45
2023-02-03T17:35:48.322Z,3.40
2023-02-03T17:54:11.930Z,3.42
2023-02-03T17:56:59.976Z,3.90
2023-02-03T17:59:47.936Z,4.05
2023-02-03T18:02:34.701Z,4.10
2023-02-03T18:05:21.721Z,4.20
2023-02-03T18:08:16.248Z,3.95
2023-02-03T18:11:04.557Z,4.05
2023-02-03T18:13:52.678Z,4.30
2023-02-03T18:16:39.558Z,5.13
2023-02-03T18:19:26.059Z,5.28
2023-02-03T18:22:12.605Z,4.38
2023-02-03T18:24:59.334Z,4.88
2023-02-03T18:27:46.054Z,5.68
2023-02-03T18:30:34.388Z,4.90
2023-02-03T18:33:20.856Z,4.30
2023-02-03T18:36:08.490Z,4.45
2023-02-03T18:38:55.286Z,4.82
2023-02-03T18:41:41.960Z,5.22
2023-02-03T18:44:28.512Z,4.68
2023-02-03T18:47:16.559Z,5.85
2023-02-03T18:50:03.306Z,4.40
2023-02-03T18:52:54.514Z,3.67
2023-02-03T18:55:42.421Z,4.25
2023-02-03T18:58:29.230Z,3.78
2023-02-03T19:01:24.270Z,3.95
2023-02-03T19:04:14.051Z,4.57
2023-02-03T19:07:01.021Z,3.53
2023-02-03T19:09:48.345Z,3.50
2023-02-03T19:12:35.317Z,4.10
2023-02-03T19:15:22.118Z,4.35
2023-02-03T19:18:09.438Z,3.42
2023-02-03T19:20:57.661Z,3.67
2023-02-03T19:23:44.258Z,3.45
2023-02-03T19:26:31.503Z,3.63
2023-02-03T19:29:18.344Z,4.60
2023-02-03T19:32:05.393Z,5.22
2023-02-03T19:34:52.233Z,4.22
2023-02-03T19:37:40.287Z,4.13
2023-02-03T19:40:27.108Z,4.93
2023-02-03T19:43:14.150Z,3.75
2023-02-03T19:46:02.172Z,4.07
2023-02-03T19:48:49.309Z,4.63
2023-02-03T19:51:36.256Z,3.55
2023-02-03T19:54:24.799Z,4.00
2023-02-03T19:57:11.283Z,4.22
2023-02-03T19:59:57.904Z,3.83
2023-02-03T20:02:44.577Z,4.38
2023-02-03T20:05:31.738Z,4.35
2023-02-03T20:08:18.642Z,4.32
2023-02-03T20:11:06.735Z,3.92
2023-02-03T20:13:53.912Z,4.07
2023-02-03T20:16:40.233Z,4.95
2023-02-03T20:19:26.684Z,4.03
2023-02-03T20:22:13.294Z,4.60
2023-02-03T20:25:00.328Z,3.67
2023-02-03T20:27:48.804Z,3.97
2023-02-03T20:30:36.042Z,4.70
2023-02-03T20:33:22.700Z,4.55
2023-02-03T20:36:11.479Z,4.63
2023-02-03T20:38:58.182Z,3.65
2023-02-03T20:41:45.054Z,3.83
2023-02-03T20:44:33.421Z,3.65
2023-02-03T20:47:22.139Z,3.83
2023-02-03T20:50:15.801Z,3.70
2023-02-03T20:53:03.320Z,3.90
2023-02-03T20:55:51.304Z,5.28
2023-02-03T20:58:37.909Z,5.22
2023-02-03T21:01:26.068Z,3.85
2023-02-03T21:04:31.604Z,4.82
2023-02-03T21:07:19.056Z,3.65
2023-02-03T21:10:20.587Z,3.85
2023-02-03T21:13:20.665Z,3.30
2023-02-03T21:16:17.371Z,3.35
2023-02-03T21:19:05.922Z,3.47
2023-02-03T21:21:53.112Z,3.40
2023-02-03T21:24:42.917Z,3.55
2023-02-03T21:27:31.194Z,3.60
2023-02-03T21:30:28.245Z,2.83
2023-02-03T21:33:30.717Z,3.53
2023-02-03T21:36:21.225Z,3.58
2023-02-03T21:39:26.633Z,3.42
2023-02-03T21:45:38.473Z,3.38
2023-02-03T21:48:30.900Z,3.30
2023-02-03T21:51:20.629Z,2.70
2023-02-03T21:54:29.457Z,2.65
2023-02-03T21:57:16.349Z,2.40
2023-02-03T22:00:03.515Z,3.17
2023-02-03T22:03:00.779Z,2.78
2023-02-03T22:05:48.411Z,3.30
2023-02-03T22:08:38.870Z,2.72
2023-02-03T22:11:26.702Z,3.05
2023-02-03T22:14:14.188Z,2.90
2023-02-03T22:17:00.770Z,3.15
2023-02-03T22:19:48.571Z,3.17
2023-02-03T22:22:35.204Z,3.08
2023-02-03T22:25:21.938Z,2.88
2023-02-03T22:28:08.623Z,3.53
2023-02-03T22:30:55.158Z,2.88
2023-02-03T22:33:42.558Z,3.20
2023-02-03T22:36:30.780Z,3.50
2023-02-03T22:39:17.379Z,4.32
2023-02-03T22:42:03.959Z,2.92
2023-02-03T22:44:50.796Z,3.15
2023-02-03T22:47:37.370Z,2.70
2023-02-03T22:50:34.628Z,2.67
2023-02-03T22:53:22.897Z,2.95
2023-02-03T22:56:09.384Z,4.25
2023-02-03T22:58:55.940Z,3.13
2023-02-03T23:01:58.499Z,3.05
2023-02-03T23:04:45.168Z,3.78
2023-02-03T23:07:32.107Z,2.95
2023-02-03T23:10:22.256Z,3.20
2023-02-03T23:13:08.820Z,3.78
2023-02-03T23:15:55.663Z,3.80
2023-02-03T23:18:42.116Z,3.58
2023-02-03T23:21:28.634Z,4.55
2023-02-03T23:24:15.203Z,3.55
2023-02-03T23:27:04.076Z,3.78
2023-02-03T23:29:50.235Z,4.43
2023-02-03T23:32:36.853Z,4.40
2023-02-03T23:35:41.165Z,4.07
2023-02-03T23:38:27.737Z,3.53
2023-02-03T23:41:14.221Z,3.72
2023-02-03T23:44:02.623Z,3.72
2023-02-03T23:46:49.768Z,3.15
2023-02-03T23:49:36.124Z,3.45
2023-02-03T23:52:22.832Z,3.40
2023-02-03T23:55:12.189Z,2.92
2023-02-03T23:57:58.691Z,3.53
